Time;durP1;ratioP1;P1;durP2;ratioP2;P2;SDS_P1;SDS_P2;PMS_P1;PMS_P2;Temp;Humidity;BMP_temperature;BMP_pressure;BME280_temperature;BME280_humidity;BME280_pressure;Samples;Min_cycle;Max_cycle;Signal;HPM_P1;HPM_P2
2022/04/11 00:01:55;;;;;;;4.30;2.30;;;6.50;1.00;;;;;;5100110;28;20544;-54
2022/04/11 00:04:21;;;;;;;3.17;2.27;;;6.60;1.00;;;;;;5109207;28;20313;-55
2022/04/11 00:06:46;;;;;;;3.33;2.27;;;6.50;1.00;;;;;;5105998;28;20281;-55
2022/04/11 00:09:12;;;;;;;4.73;2.23;;;6.50;1.00;;;;;;5102756;28;20663;-54
2022/04/11 00:11:38;;;;;;;3.37;2.00;;;6.40;1.00;;;;;;5098006;28;20190;-54
2022/04/11 00:14:04;;;;;;;3.47;2.37;;;6.30;1.00;;;;;;5104916;28;20451;-54
2022/04/11 00:16:30;;;;;;;2.37;1.90;;;6.40;1.00;;;;;;5102816;28;20237;-54
2022/04/11 00:18:56;;;;;;;4.83;2.27;;;6.30;1.00;;;;;;5105773;28;21326;-53
2022/04/11 00:21:22;;;;;;;3.30;2.30;;;6.30;1.00;;;;;;5106462;28;20466;-55
2022/04/11 00:23:48;;;;;;;3.40;2.27;;;;;;;;;;5103345;28;20186;-53
2022/04/11 00:26:13;;;;;;;3.87;2.30;;;6.20;1.00;;;;;;5102793;28;20186;-54
2022/04/11 00:28:39;;;;;;;5.70;2.50;;;6.10;1.00;;;;;;5101893;28;20446;-53
2022/04/11 00:31:04;;;;;;;4.43;2.10;;;6.20;1.00;;;;;;5100640;28;20293;-55
2022/04/11 00:33:30;;;;;;;3.10;2.40;;;6.10;1.00;;;;;;5104791;28;20713;-55
2022/04/11 00:35:56;;;;;;;5.37;2.47;;;6.10;1.00;;;;;;5105128;28;21861;-54
2022/04/11 00:38:21;;;;;;;3.07;2.10;;;6.10;1.00;;;;;;5105499;28;20618;-54
2022/04/11 00:40:47;;;;;;;3.90;2.10;;;6.20;1.00;;;;;;5097583;28;20183;-53
2022/04/11 00:43:35;;;;;;;3.10;2.40;;;6.20;1.00;;;;;;5103627;28;20214;-53
2022/04/11 00:46:02;;;;;;;4.80;2.60;;;6.40;1.00;;;;;;5105580;28;20183;-54
2022/04/11 00:48:29;;;;;;;4.67;2.63;;;6.40;1.00;;;;;;5101978;28;20444;-55
2022/04/11 00:50:59;;;;;;;3.40;2.63;;;6.40;1.00;;;;;;5099937;28;20550;-54
2022/04/11 00:53:26;;;;;;;5.77;2.90;;;6.30;1.00;;;;;;5106384;28;20448;-54
2022/04/11 00:55:54;;;;;;;2.80;2.60;;;6.30;1.00;;;;;;5101245;28;20506;-53
2022/04/11 00:58:21;;;;;;;3.90;2.90;;;6.30;1.00;;;;;;5107120;28;21030;-55
2022/04/11 01:00:46;;;;;;;2.80;2.50;;;6.30;1.00;;;;;;5102014;28;20440;-53
2022/04/11 01:03:12;;;;;;;3.90;2.80;;;6.30;1.00;;;;;;5098702;28;20522;-55
2022/04/11 01:05:38;;;;;;;2.80;2.60;;;6.30;1.00;;;;;;5105129;28;20182;-55
2022/04/11 01:08:06;;;;;;;3.87;3.47;;;6.20;1.00;;;;;;5102769;28;20574;-55
2022/04/11 01:10:32;;;;;;;3.60;3.30;;;6.10;1.00;;;;;;5105493;28;20455;-54
2022/04/11 01:12:58;;;;;;;6.43;3.13;;;6.10;1.00;;;;;;5104374;28;20443;-55
2022/04/11 01:15:24;;;;;;;5.30;3.73;;;6.00;1.00;;;;;;5102309;28;20502;-54
2022/04/11 01:17:49;;;;;;;5.57;3.80;;;6.10;1.00;;;;;;5105061;28;20300;-55
2022/04/11 01:20:19;;;;;;;3.77;2.90;;;;;;;;;;5104076;28;20274;-53
2022/04/11 01:22:45;;;;;;;4.67;3.30;;;6.10;1.00;;;;;;5105970;28;20194;-55
2022/04/11 01:25:11;;;;;;;3.90;2.53;;;;;;;;;;5108770;28;20444;-55
2022/04/11 01:27:38;;;;;;;6.23;2.43;;;6.20;1.00;;;;;;5107172;28;21085;-54
2022/04/11 01:30:07;;;;;;;4.70;2.97;;;6.20;1.00;;;;;;5104070;28;20949;-53
2022/04/11 01:32:33;;;;;;;3.50;3.20;;;;;;;;;;5110123;28;20439;-53
2022/04/11 01:34:58;;;;;;;4.93;2.90;;;6.50;1.00;;;;;;5104891;28;20525;-52
2022/04/11 01:37:26;;;;;;;4.50;2.90;;;6.40;1.00;;;;;;5106958;28;20546;-54
2022/04/11 01:39:51;;;;;;;3.60;2.60;;;6.30;1.00;;;;;;5107391;28;20257;-54
2022/04/11 01:42:17;;;;;;;3.40;2.93;;;6.30;1.00;;;;;;5102902;28;20551;-54
2022/04/11 01:44:46;;;;;;;4.33;2.97;;;6.40;1.00;;;;;;5104183;28;20210;-54
2022/04/11 01:47:12;;;;;;;3.60;2.50;;;;;;;;;;5101352;28;20223;-54
2022/04/11 01:49:38;;;;;;;3.03;2.50;;;6.30;1.00;;;;;;5108523;28;20448;-54
2022/04/11 01:52:04;;;;;;;2.67;2.43;;;6.30;1.00;;;;;;5109113;28;20990;-53
2022/04/11 01:54:30;;;;;;;6.77;2.87;;;6.30;1.00;;;;;;5105695;28;20340;-55
2022/04/11 01:56:56;;;;;;;3.30;2.70;;;;;;;;;;5106024;28;20205;-54
2022/04/11 01:59:21;;;;;;;7.37;3.73;;;6.20;1.00;;;;;;5099539;28;20451;-53
2022/04/11 02:01:47;;;;;;;3.93;2.73;;;6.10;1.00;;;;;;5106173;28;20443;-55
2022/04/11 02:04:12;;;;;;;4.20;3.27;;;6.10;1.00;;;;;;5105123;28;20214;-54
2022/04/11 02:06:38;;;;;;;4.30;3.13;;;6.00;1.00;;;;;;5104728;28;20224;-54
2022/04/11 02:09:04;;;;;;;3.63;3.13;;;5.90;1.00;;;;;;5103497;28;20561;-55
2022/04/11 02:11:29;;;;;;;3.63;2.93;;;5.90;1.00;;;;;;5105367;28;20198;-55
2022/04/11 02:13:55;;;;;;;6.33;3.20;;;5.90;1.00;;;;;;5105406;28;21099;-53
2022/04/11 02:16:23;;;;;;;6.20;3.40;;;;;;;;;;5106870;28;20193;-53
2022/04/11 02:18:48;;;;;;;7.13;3.20;;;5.70;1.00;;;;;;5107061;28;20179;-55
2022/04/11 02:21:14;;;;;;;3.50;3.03;;;5.70;1.00;;;;;;5083433;28;20469;-55
2022/04/11 02:23:40;;;;;;;3.77;3.20;;;5.50;1.00;;;;;;5105580;28;20620;-54
2022/04/11 02:26:06;;;;;;;6.20;3.20;;;;;;;;;;5105041;28;20608;-55
2022/04/11 02:28:31;;;;;;;4.37;3.17;;;;;;;;;;5104882;28;20178;-54
2022/04/11 02:30:57;;;;;;;5.27;3.60;;;5.40;1.00;;;;;;5105223;28;20604;-56
2022/04/11 02:33:23;;;;;;;5.60;3.60;;;5.50;1.00;;;;;;5106091;28;20447;-53
2022/04/11 02:35:48;;;;;;;6.77;4.27;;;5.50;1.00;;;;;;5103549;28;20223;-55
2022/04/11 02:38:14;;;;;;;4.30;2.97;;;5.50;1.00;;;;;;5104294;28;20214;-52
2022/04/11 02:40:39;;;;;;;4.43;3.37;;;5.50;1.00;;;;;;5107409;28;20186;-54
2022/04/11 02:43:05;;;;;;;7.20;3.40;;;5.30;1.00;;;;;;5105466;28;20186;-54
2022/04/11 02:45:31;;;;;;;3.97;2.97;;;5.30;1.00;;;;;;5105802;28;20818;-56
2022/04/11 02:47:57;;;;;;;3.90;3.17;;;5.20;1.00;;;;;;5106258;28;20197;-53
2022/04/11 02:50:23;;;;;;;3.87;2.73;;;5.20;1.00;;;;;;5105988;28;20540;-54
2022/04/11 02:52:48;;;;;;;4.83;3.17;;;5.20;1.00;;;;;;5105452;28;20435;-53
2022/04/11 02:55:14;;;;;;;5.47;3.40;;;;;;;;;;5102296;28;20190;-54
2022/04/11 02:57:40;;;;;;;3.70;3.20;;;5.10;1.00;;;;;;5107715;28;20289;-55
2022/04/11 03:00:09;;;;;;;5.37;3.47;;;5.00;1.00;;;;;;5103563;28;20782;-55
2022/04/11 03:02:34;;;;;;;4.40;3.03;;;5.00;1.00;;;;;;5104713;28;20947;-56
2022/04/11 03:05:00;;;;;;;8.77;3.50;;;5.10;1.00;;;;;;5104902;28;20544;-56
2022/04/11 03:07:27;;;;;;;3.23;2.93;;;5.20;1.00;;;;;;5104611;28;20190;-53
2022/04/11 03:09:54;;;;;;;6.70;2.80;;;5.30;1.00;;;;;;5108551;28;20201;-55
2022/04/11 03:12:19;;;;;;;2.70;2.47;;;5.30;1.00;;;;;;5103062;28;20458;-55
2022/04/11 03:14:47;;;;;;;2.83;2.30;;;5.30;1.00;;;;;;5101744;28;20448;-54
2022/04/11 03:17:12;;;;;;;3.20;2.33;;;5.30;1.00;;;;;;5106458;28;20244;-56
2022/04/11 03:19:38;;;;;;;3.57;2.80;;;5.30;1.00;;;;;;5105535;28;20511;-55
2022/04/11 03:22:03;;;;;;;3.60;3.13;;;5.20;1.00;;;;;;5102337;28;20265;-55
2022/04/11 03:24:29;;;;;;;3.73;2.87;;;5.20;1.00;;;;;;5104993;28;20732;-54
2022/04/11 03:26:54;;;;;;;7.97;3.37;;;5.20;1.00;;;;;;5102124;28;20182;-54
2022/04/11 03:29:21;;;;;;;4.10;3.43;;;5.10;1.00;;;;;;5102350;28;20354;-54
2022/04/11 03:31:48;;;;;;;4.97;3.40;;;4.90;1.00;;;;;;5100222;28;20248;-53
2022/04/11 03:34:13;;;;;;;4.00;2.83;;;4.90;1.00;;;;;;5099175;28;20459;-52
2022/04/11 03:36:39;;;;;;;6.33;3.87;;;4.90;1.00;;;;;;5101193;28;20468;-59
2022/04/11 03:39:05;;;;;;;4.77;2.90;;;4.90;1.00;;;;;;5109359;28;20490;-53
2022/04/11 03:41:30;;;;;;;7.80;3.10;;;4.90;1.00;;;;;;5102627;28;20624;-54
2022/04/11 03:43:56;;;;;;;4.10;3.67;;;4.80;1.00;;;;;;5101241;28;20445;-53
2022/04/11 03:46:21;;;;;;;3.47;3.10;;;4.80;1.00;;;;;;5109057;28;20716;-55
2022/04/11 03:48:47;;;;;;;5.83;3.40;;;;;;;;;;5108167;28;20204;-56
2022/04/11 03:51:13;;;;;;;3.97;3.10;;;4.70;1.00;;;;;;5104028;28;20201;-55
2022/04/11 03:53:38;;;;;;;4.80;3.27;;;4.60;1.00;;;;;;5098361;28;20443;-56
2022/04/11 03:56:05;;;;;;;3.83;3.30;;;4.60;1.00;;;;;;5099817;28;20182;-55
2022/04/11 03:58:31;;;;;;;4.80;3.20;;;4.60;1.00;;;;;;5107404;28;20224;-55
2022/04/11 04:00:56;;;;;;;4.90;3.70;;;4.70;1.00;;;;;;5108469;28;20439;-53
2022/04/11 04:03:22;;;;;;;4.93;3.03;;;4.60;1.00;;;;;;5106090;28;20477;-54
2022/04/11 04:05:47;;;;;;;5.33;3.30;;;4.70;1.00;;;;;;5105805;28;20166;-54
2022/04/11 04:08:17;;;;;;;3.50;3.00;;;4.60;1.00;;;;;;5102988;28;20521;-54
2022/04/11 04:10:44;;;;;;;5.83;3.30;;;4.60;1.00;;;;;;5101260;28;20277;-53
2022/04/11 04:13:09;;;;;;;4.73;2.90;;;4.70;1.00;;;;;;5102898;28;20851;-56
2022/04/11 04:15:36;;;;;;;6.83;3.23;;;4.70;1.00;;;;;;5103493;28;20436;-56
2022/04/11 04:18:01;;;;;;;6.57;3.90;;;4.70;1.00;;;;;;5101084;28;20202;-58
2022/04/11 04:20:27;;;;;;;4.83;3.70;;;4.70;1.00;;;;;;5101953;28;20439;-57
2022/04/11 04:22:53;;;;;;;4.70;3.57;;;4.70;1.00;;;;;;5107884;28;20177;-57
2022/04/11 04:25:19;;;;;;;7.27;3.93;;;4.70;1.00;;;;;;5105401;28;20533;-54
2022/04/11 04:27:45;;;;;;;4.30;3.23;;;4.70;1.00;;;;;;5102914;28;20973;-53
2022/04/11 04:30:12;;;;;;;4.83;3.87;;;4.60;1.00;;;;;;5106711;28;20447;-53
2022/04/11 04:32:38;;;;;;;3.80;3.40;;;4.50;1.00;;;;;;5103646;28;20260;-54
2022/04/11 04:35:05;;;;;;;11.40;3.90;;;4.50;1.00;;;;;;5103557;28;20440;-55
2022/04/11 04:37:31;;;;;;;15.90;4.60;;;4.50;1.00;;;;;;5101527;28;20472;-54
2022/04/11 04:39:57;;;;;;;6.90;3.60;;;4.60;1.00;;;;;;5105703;28;20451;-55
2022/04/11 04:42:25;;;;;;;3.57;3.20;;;4.50;1.00;;;;;;5110020;28;20658;-54
2022/04/11 04:44:50;;;;;;;7.57;3.70;;;4.50;1.00;;;;;;5098889;28;20439;-54
2022/04/11 04:47:16;;;;;;;8.87;4.00;;;4.60;1.00;;;;;;5101939;28;20451;-54
2022/04/11 04:49:42;;;;;;;6.27;3.70;;;4.60;1.00;;;;;;5104842;28;20269;-54
2022/04/11 04:52:08;;;;;;;7.30;4.50;;;4.60;1.00;;;;;;5101313;28;20182;-54
2022/04/11 04:54:34;;;;;;;8.23;3.83;;;4.60;1.00;;;;;;5104872;28;20481;-53
2022/04/11 04:57:01;;;;;;;6.70;3.47;;;4.60;1.00;;;;;;5103941;28;20520;-54
2022/04/11 04:59:26;;;;;;;6.50;3.63;;;4.50;1.00;;;;;;5098776;28;20456;-53
2022/04/11 05:01:52;;;;;;;9.83;4.33;;;4.50;1.00;;;;;;5105355;28;20424;-54
2022/04/11 05:04:18;;;;;;;7.63;3.97;;;;;;;;;;5104704;28;20227;-53
2022/04/11 05:06:44;;;;;;;5.40;4.50;;;4.70;1.00;;;;;;5105252;28;20439;-53
2022/04/11 05:09:09;;;;;;;9.90;4.30;;;4.80;1.00;;;;;;5099299;28;20447;-54
2022/04/11 05:11:35;;;;;;;7.27;3.97;;;4.90;1.00;;;;;;5102308;28;20182;-53
2022/04/11 05:14:00;;;;;;;5.47;4.10;;;4.90;1.00;;;;;;5102972;28;20174;-54
2022/04/11 05:16:26;;;;;;;5.23;4.00;;;4.80;1.00;;;;;;5104560;28;20183;-54
2022/04/11 05:18:51;;;;;;;5.73;4.03;;;5.00;1.00;;;;;;5097742;28;20257;-54
2022/04/11 05:21:17;;;;;;;9.53;3.87;;;5.00;1.00;;;;;;5102345;28;20188;-55
2022/04/11 05:23:42;;;;;;;6.90;4.07;;;5.00;1.00;;;;;;5099001;28;20189;-55
2022/04/11 05:26:08;;;;;;;6.30;4.43;;;5.20;1.00;;;;;;5099586;28;20543;-53
2022/04/11 05:28:34;;;;;;;7.63;4.70;;;5.30;1.00;;;;;;5095341;28;20584;-56
2022/04/11 05:30:59;;;;;;;5.70;5.00;;;5.50;1.00;;;;;;5101224;28;20674;-56
2022/04/11 05:33:25;;;;;;;4.87;4.33;;;;;;;;;;5101342;28;20251;-55
2022/04/11 05:35:52;;;;;;;5.27;3.80;;;5.60;1.00;;;;;;5098604;28;20185;-55
2022/04/11 05:38:19;;;;;;;9.10;4.60;;;6.20;1.00;;;;;;5098213;28;20957;-55
2022/04/11 05:40:48;;;;;;;8.30;5.03;;;5.80;1.00;;;;;;5102340;28;20480;-54
2022/04/11 05:43:14;;;;;;;8.47;5.07;;;5.80;1.00;;;;;;5096190;28;20440;-55
2022/04/11 05:45:40;;;;;;;13.03;4.63;;;5.90;1.00;;;;;;5101232;28;20445;-53
2022/04/11 05:48:06;;;;;;;8.37;5.13;;;6.00;1.00;;;;;;5100470;28;20655;-54
2022/04/11 05:50:32;;;;;;;9.60;4.20;;;6.00;1.00;;;;;;5096427;28;20441;-54
2022/04/11 05:52:57;;;;;;;10.13;4.37;;;6.20;1.00;;;;;;5101462;28;20498;-56
2022/04/11 05:55:23;;;;;;;6.57;4.60;;;6.30;1.00;;;;;;5103477;28;20186;-55
2022/04/11 05:57:49;;;;;;;9.17;4.80;;;6.40;1.00;;;;;;5099009;28;20210;-54
2022/04/11 06:00:15;;;;;;;5.10;4.00;;;6.50;1.00;;;;;;5101123;28;20178;-55
2022/04/11 06:02:41;;;;;;;5.53;4.20;;;5.40;1.00;;;;;;5099670;28;20436;-55
2022/04/11 06:05:07;;;;;;;5.07;3.47;;;6.60;1.00;;;;;;5109982;28;20440;-55
2022/04/11 06:07:33;;;;;;;6.03;3.53;;;6.80;1.00;;;;;;5108537;28;21555;-54
2022/04/11 06:09:59;;;;;;;4.80;3.90;;;7.00;1.00;;;;;;5097830;28;20437;-55
2022/04/11 06:12:26;;;;;;;5.73;4.20;;;7.20;1.00;;;;;;5096435;28;20624;-55
2022/04/11 06:14:53;;;;;;;8.97;5.00;;;7.40;1.00;;;;;;5105369;28;20925;-55
2022/04/11 06:17:23;;;;;;;5.90;4.60;;;7.50;1.00;;;;;;5101667;28;20476;-55
2022/04/11 06:19:57;;;;;;;6.73;3.87;;;7.50;1.00;;;;;;5101775;28;20448;-57
2022/04/11 06:22:23;;;;;;;13.40;4.03;;;7.60;1.00;;;;;;5100533;28;20489;-54
2022/04/11 06:24:50;;;;;;;6.43;3.93;;;7.70;1.00;;;;;;5104385;28;20443;-55
2022/04/11 06:27:19;;;;;;;6.37;3.87;;;7.80;1.00;;;;;;5101092;28;20439;-53
2022/04/11 06:29:46;;;;;;;5.37;3.17;;;8.00;1.00;;;;;;5101803;28;20444;-54
2022/04/11 06:32:12;;;;;;;4.73;3.50;;;8.10;1.00;;;;;;5106054;28;20458;-55
2022/04/11 06:34:39;;;;;;;3.57;2.80;;;8.30;1.00;;;;;;5094498;28;20440;-55
2022/04/11 06:37:05;;;;;;;5.63;4.00;;;8.50;1.00;;;;;;5107783;28;20206;-55
2022/04/11 06:39:31;;;;;;;5.70;4.07;;;8.60;1.00;;;;;;5105037;28;20450;-56
2022/04/11 06:41:57;;;;;;;6.50;3.03;;;8.60;1.00;;;;;;5104691;28;20917;-52
2022/04/11 06:44:22;;;;;;;6.00;3.00;;;8.80;1.00;;;;;;5108162;28;20434;-54
2022/04/11 06:46:49;;;;;;;3.43;3.10;;;8.80;1.00;;;;;;5105365;28;20526;-53
2022/04/11 06:49:14;;;;;;;5.80;3.07;;;8.90;1.00;;;;;;5101334;28;20274;-55
2022/04/11 06:51:40;;;;;;;6.80;3.37;;;8.90;1.00;;;;;;5104387;28;20960;-52
2022/04/11 06:54:06;;;;;;;10.47;4.20;;;9.20;1.00;;;;;;5101177;28;20452;-54
2022/04/11 06:56:31;;;;;;;6.30;3.33;;;9.40;1.00;;;;;;5103767;28;20240;-54
2022/04/11 06:58:57;;;;;;;6.70;3.47;;;9.40;1.00;;;;;;5102883;28;20174;-53
2022/04/11 07:01:23;;;;;;;5.57;2.90;;;9.70;1.00;;;;;;5102370;28;20179;-55
2022/04/11 07:03:48;;;;;;;5.80;3.23;;;9.70;1.00;;;;;;5109856;28;20746;-54
2022/04/11 07:06:14;;;;;;;4.90;2.47;;;9.70;1.00;;;;;;5103758;28;20228;-54
2022/04/11 07:08:40;;;;;;;7.30;2.93;;;10.00;1.00;;;;;;5101602;28;20182;-54
2022/04/11 07:11:06;;;;;;;2.60;2.40;;;10.30;1.00;;;;;;5099577;28;20190;-53
2022/04/11 07:13:32;;;;;;;4.40;2.67;;;10.40;1.00;;;;;;5102972;28;20194;-53
2022/04/11 07:15:58;;;;;;;3.90;2.70;;;10.40;1.00;;;;;;5111945;28;20799;-54
2022/04/11 07:18:27;;;;;;;3.50;2.60;;;10.50;1.00;;;;;;5109014;28;20456;-56
2022/04/11 07:20:53;;;;;;;4.33;2.60;;;10.40;1.00;;;;;;5109661;28;20269;-54
2022/04/11 07:23:18;;;;;;;6.27;2.77;;;10.50;1.00;;;;;;5109099;28;20992;-54
2022/04/11 07:25:44;;;;;;;4.93;1.67;;;10.60;1.00;;;;;;5100352;28;20442;-55
2022/04/11 07:28:10;;;;;;;5.77;2.10;;;10.70;1.00;;;;;;5098345;28;20194;-54
2022/04/11 07:30:35;;;;;;;5.73;2.27;;;10.60;1.00;;;;;;5098958;28;20579;-56
2022/04/11 07:33:01;;;;;;;3.30;2.20;;;10.80;1.00;;;;;;5105373;28;20539;-54
2022/04/11 07:35:27;;;;;;;3.80;2.50;;;11.00;1.00;;;;;;5093603;28;20297;-55
2022/04/11 07:37:52;;;;;;;5.80;2.30;;;11.00;1.00;;;;;;5107142;28;20209;-56
2022/04/11 07:40:18;;;;;;;4.30;1.73;;;10.90;1.00;;;;;;5109207;28;20439;-54
2022/04/11 07:42:44;;;;;;;3.03;2.70;;;;;;;;;;5099489;28;20191;-55
2022/04/11 07:45:09;;;;;;;2.60;2.20;;;11.00;1.00;;;;;;5103055;28;20194;-54
2022/04/11 07:47:35;;;;;;;3.53;1.87;;;11.00;1.00;;;;;;5110239;28;20436;-56
2022/04/11 07:50:01;;;;;;;2.70;2.20;;;11.00;1.00;;;;;;5104579;28;20194;-55
2022/04/11 07:52:26;;;;;;;3.23;2.10;;;11.30;1.00;;;;;;5097520;28;20249;-54
2022/04/11 07:54:52;;;;;;;7.43;1.60;;;11.60;1.00;;;;;;5102893;28;20942;-53
2022/04/11 07:57:18;;;;;;;4.80;1.60;;;11.50;1.00;;;;;;5103016;28;20701;-54
2022/04/11 07:59:44;;;;;;;2.40;1.20;;;11.50;1.00;;;;;;5104520;28;20432;-55
2022/04/11 08:02:09;;;;;;;3.73;1.00;;;11.60;1.00;;;;;;5105445;28;21298;-56
2022/04/11 08:04:35;;;;;;;4.63;1.40;;;11.50;1.00;;;;;;5099291;28;20230;-54
2022/04/11 08:07:02;;;;;;;4.10;1.20;;;11.40;1.00;;;;;;5105278;28;20209;-53
2022/04/11 08:09:28;;;;;;;2.20;1.17;;;11.20;1.00;;;;;;5098347;28;20270;-54
2022/04/11 08:11:55;;;;;;;3.20;1.10;;;11.00;1.00;;;;;;5102438;28;20455;-55
2022/04/11 08:14:20;;;;;;;1.07;0.80;;;11.10;1.00;;;;;;5100597;28;20440;-55
2022/04/11 08:16:46;;;;;;;2.80;0.97;;;10.80;1.00;;;;;;5100947;28;20642;-56
2022/04/11 08:19:12;;;;;;;2.80;1.03;;;10.90;1.00;;;;;;5104209;28;20182;-56
2022/04/11 08:21:37;;;;;;;3.03;1.30;;;11.60;1.00;;;;;;5102939;28;20440;-54
2022/04/11 08:24:04;;;;;;;3.50;1.40;;;11.70;1.00;;;;;;5097631;28;20198;-54
2022/04/11 08:26:29;;;;;;;5.00;1.87;;;12.00;1.00;;;;;;5108076;28;20680;-54
2022/04/11 08:28:55;;;;;;;2.00;0.97;;;12.00;1.00;;;;;;5103934;28;20436;-56
2022/04/11 08:31:20;;;;;;;4.23;1.90;;;11.90;1.00;;;;;;5106023;28;20185;-54
2022/04/11 08:33:46;;;;;;;2.93;1.33;;;11.90;1.00;;;;;;5100299;28;20273;-55
2022/04/11 08:36:11;;;;;;;5.00;1.17;;;11.70;1.00;;;;;;5109318;28;20182;-56
2022/04/11 08:38:37;;;;;;;1.30;1.20;;;;;;;;;;5104087;28;20331;-54
2022/04/11 08:41:15;;;;;;;3.17;1.30;;;11.60;1.00;;;;;;5104827;28;20700;-56
2022/04/11 08:43:41;;;;;;;1.73;1.30;;;11.80;1.00;;;;;;5108910;28;20440;-55
2022/04/11 08:46:07;;;;;;;1.30;1.20;;;11.90;1.00;;;;;;5100769;28;20893;-53
2022/04/11 08:48:33;;;;;;;3.93;1.10;;;12.10;1.00;;;;;;5101297;28;20448;-55
2022/04/11 08:50:59;;;;;;;1.57;1.10;;;12.10;1.00;;;;;;5103229;28;20178;-55
2022/04/11 08:53:25;;;;;;;3.60;1.30;;;;;;;;;;5100986;28;20556;-55
2022/04/11 08:55:51;;;;;;;1.70;1.00;;;12.20;1.00;;;;;;5105042;28;20527;-55
2022/04/11 08:58:18;;;;;;;1.43;1.00;;;14.90;1.00;;;;;;5108591;28;20472;-56
2022/04/11 09:00:44;;;;;;;1.33;0.80;;;12.70;1.00;;;;;;5103496;28;20936;-56
2022/04/11 09:03:09;;;;;;;1.10;0.87;;;12.70;1.00;;;;;;5104112;28;20464;-55
2022/04/11 09:05:35;;;;;;;4.20;1.23;;;12.30;1.00;;;;;;5102618;28;20437;-53
2022/04/11 09:08:01;;;;;;;2.00;1.10;;;12.30;1.00;;;;;;5107963;28;20211;-55
2022/04/11 09:10:32;;;;;;;2.50;1.20;;;12.50;1.00;;;;;;5107980;28;20204;-54
2022/04/11 09:13:06;;;;;;;1.60;1.07;;;12.40;1.00;;;;;;5104602;28;20181;-55
2022/04/11 09:15:45;;;;;;;1.10;1.00;;;12.40;1.00;;;;;;5094853;28;20448;-54
2022/04/11 09:18:11;;;;;;;3.27;0.93;;;;;;;;;;5104923;28;20655;-54
2022/04/11 09:20:41;;;;;;;2.23;1.10;;;13.10;1.00;;;;;;5102016;28;20451;-55
2022/04/11 09:23:21;;;;;;;2.00;0.87;;;13.10;1.00;;;;;;5105772;28;20534;-55
2022/04/11 09:25:47;;;;;;;1.97;0.87;;;13.10;1.00;;;;;;5101317;28;20419;-55
2022/04/11 09:28:13;;;;;;;1.63;1.30;;;12.70;1.00;;;;;;5092020;28;20531;-54
2022/04/11 09:30:40;;;;;;;1.50;0.80;;;15.40;1.00;;;;;;5100470;28;20535;-53
2022/04/11 09:33:07;;;;;;;3.37;1.20;;;12.60;1.00;;;;;;5104012;28;20178;-54
2022/04/11 09:35:38;;;;;;;2.40;0.87;;;13.10;1.00;;;;;;5107638;28;20508;-54
2022/04/11 09:38:09;;;;;;;2.10;0.70;;;13.20;1.00;;;;;;5104893;28;20442;-53
2022/04/11 09:40:54;;;;;;;2.20;0.77;;;13.40;1.00;;;;;;5108630;27;20523;-53
2022/04/11 09:43:31;;;;;;;1.80;0.80;;;13.60;1.00;;;;;;5106922;28;20462;-54
2022/04/11 09:46:02;;;;;;;1.80;1.30;;;13.70;1.00;;;;;;5106965;28;20451;-55
2022/04/11 09:48:32;;;;;;;1.20;1.00;;;13.60;1.00;;;;;;5107471;28;20417;-55
2022/04/11 09:50:59;;;;;;;1.33;1.00;;;13.60;1.00;;;;;;5105016;28;20440;-53
2022/04/11 09:53:31;;;;;;;4.10;1.23;;;13.60;1.00;;;;;;5107475;28;20472;-53
2022/04/11 09:55:56;;;;;;;1.67;1.07;;;13.50;1.00;;;;;;5097462;28;20444;-53
2022/04/11 09:58:24;;;;;;;3.00;0.90;;;13.30;1.00;;;;;;5100703;28;20983;-53
2022/04/11 10:00:51;;;;;;;2.60;0.90;;;13.20;1.00;;;;;;5102829;28;20178;-55
2022/04/11 10:03:20;;;;;;;1.17;1.07;;;13.50;1.00;;;;;;5102693;28;20460;-54
2022/04/11 10:05:46;;;;;;;2.57;1.27;;;13.50;1.00;;;;;;5104892;28;20438;-54
2022/04/11 10:08:12;;;;;;;1.00;0.80;;;13.60;1.00;;;;;;5106267;28;20529;-54
2022/04/11 10:10:41;;;;;;;3.03;0.83;;;13.40;1.00;;;;;;5112108;28;20440;-53
2022/04/11 10:13:13;;;;;;;3.77;1.10;;;13.70;1.00;;;;;;5102465;28;20476;-54
2022/04/11 10:15:40;;;;;;;1.23;1.00;;;13.90;1.00;;;;;;5104987;28;20440;-53
2022/04/11 10:18:07;;;;;;;1.73;1.63;;;13.80;1.00;;;;;;5103425;28;20448;-53
2022/04/11 10:20:40;;;;;;;4.63;2.53;;;13.80;1.00;;;;;;5104855;28;20435;-62
2022/04/11 10:23:25;;;;;;;2.03;1.70;;;13.50;1.00;;;;;;5115822;28;20920;-64
2022/04/11 10:25:53;;;;;;;1.00;0.90;;;13.60;1.00;;;;;;5096877;28;20432;-63
2022/04/11 10:28:27;;;;;;;1.40;1.30;;;13.90;1.00;;;;;;5095340;28;20399;-62
2022/04/11 10:31:07;;;;;;;3.20;0.80;;;13.80;1.00;;;;;;5095506;28;20758;-64
2022/04/11 10:33:43;;;;;;;2.20;1.20;;;13.60;1.00;;;;;;5095584;28;20416;-63
2022/04/11 10:36:28;;;;;;;1.77;1.00;;;13.30;1.00;;;;;;5099500;28;20478;-62
2022/04/11 10:39:12;;;;;;;2.47;0.90;;;13.20;1.00;;;;;;5107776;28;20454;-63
2022/04/11 10:42:09;;;;;;;1.70;1.00;;;13.70;1.00;;;;;;5109277;28;20424;-62
2022/04/11 10:44:49;;;;;;;1.73;1.00;;;13.80;1.00;;;;;;5108165;28;20484;-63
2022/04/11 10:47:15;;;;;;;1.60;0.90;;;13.80;1.00;;;;;;5102557;28;20436;-62
2022/04/11 10:49:50;;;;;;;0.97;0.80;;;13.60;1.00;;;;;;5111653;28;20959;-63
2022/04/11 10:52:28;;;;;;;2.43;1.03;;;14.00;1.00;;;;;;5112612;28;20659;-61
2022/04/11 10:54:55;;;;;;;2.77;1.37;;;14.30;1.00;;;;;;5112389;28;20439;-62
2022/04/11 10:57:35;;;;;;;1.93;1.07;;;14.50;1.00;;;;;;5108761;28;20465;-62
2022/04/11 11:00:06;;;;;;;1.00;0.77;;;14.60;1.00;;;;;;5108248;28;20870;-61
2022/04/11 11:05:24;;;;;;;2.63;0.97;;;14.60;1.00;;;;;;5104433;28;20436;-61
2022/04/11 11:08:10;;;;;;;0.90;0.70;;;14.20;1.00;;;;;;5106885;28;20518;-62
2022/04/11 11:10:41;;;;;;;2.20;1.00;;;13.90;1.00;;;;;;5099993;28;20432;-63
2022/04/11 11:13:34;;;;;;;1.13;0.97;;;13.90;1.00;;;;;;5108216;28;20512;-64
2022/04/11 11:16:21;;;;;;;3.97;1.20;;;13.70;1.00;;;;;;5108595;28;20429;-63
2022/04/11 11:18:46;;;;;;;1.90;1.17;;;13.70;1.00;;;;;;5108065;28;20459;-63
2022/04/11 11:21:17;;;;;;;3.63;2.90;;;14.00;1.00;;;;;;5104134;28;20493;-63
2022/04/11 11:24:11;;;;;;;1.30;1.00;;;14.10;1.00;;;;;;5100289;28;20174;-62
2022/04/11 11:26:40;;;;;;;1.00;0.90;;;14.50;1.00;;;;;;5104809;28;20433;-62
2022/04/11 11:29:35;;;;;;;2.33;1.30;;;14.80;1.00;;;;;;5105551;28;20492;-63
2022/04/11 11:32:06;;;;;;;1.17;0.90;;;14.50;1.00;;;;;;5102984;28;20437;-63
2022/04/11 11:34:34;;;;;;;1.63;1.13;;;14.50;1.00;;;;;;5103519;28;20436;-62
2022/04/11 11:37:07;;;;;;;1.20;1.10;;;14.70;1.00;;;;;;5094026;28;20479;-62
2022/04/11 11:39:39;;;;;;;3.23;1.13;;;14.80;1.00;;;;;;5094065;28;20428;-62
2022/04/11 11:42:08;;;;;;;1.40;1.10;;;14.60;1.00;;;;;;5096837;28;20825;-62
2022/04/11 11:44:45;;;;;;;1.17;1.07;;;14.00;1.00;;;;;;5114362;28;20434;-62
2022/04/11 11:47:10;;;;;;;1.20;0.87;;;14.00;1.00;;;;;;5114751;28;20428;-62
2022/04/11 11:49:44;;;;;;;1.83;0.90;;;14.30;1.00;;;;;;5114007;28;20821;-61
2022/04/11 11:52:20;;;;;;;1.20;1.10;;;14.40;1.00;;;;;;5109517;28;20190;-61
2022/04/11 11:54:51;;;;;;;2.53;1.40;;;14.30;1.00;;;;;;5101800;28;20438;-61
2022/04/11 11:57:22;;;;;;;1.50;1.30;;;14.10;1.00;;;;;;5104728;28;20459;-62
2022/04/11 12:00:05;;;;;;;1.33;1.10;;;;;;;;;;5104927;28;20940;-62
2022/04/11 12:05:26;;;;;;;3.43;0.90;;;14.30;1.00;;;;;;5113862;28;20833;-63
2022/04/11 12:08:07;;;;;;;1.67;1.10;;;14.60;1.00;;;;;;5113701;28;20462;-62
2022/04/11 12:10:33;;;;;;;2.03;1.37;;;14.90;1.00;;;;;;5113489;28;20435;-62
2022/04/11 12:12:59;;;;;;;2.10;1.30;;;14.80;1.00;;;;;;5106984;28;20435;-63
2022/04/11 12:15:30;;;;;;;1.43;0.97;;;14.90;1.00;;;;;;5113503;28;20501;-63
2022/04/11 12:18:01;;;;;;;1.60;1.10;;;15.20;1.00;;;;;;5113221;28;20543;-64
2022/04/11 12:20:30;;;;;;;1.70;0.97;;;15.10;1.00;;;;;;5112760;28;20440;-64
2022/04/11 12:23:00;;;;;;;1.57;1.00;;;;;;;;;;5099774;28;20976;-62
2022/04/11 12:25:36;;;;;;;2.10;1.87;;;15.40;1.00;;;;;;5098211;28;20432;-62
2022/04/11 12:28:17;;;;;;;2.40;1.20;;;15.10;1.00;;;;;;5097764;28;20505;-63
2022/04/11 12:31:06;;;;;;;1.33;1.00;;;14.90;1.00;;;;;;5100336;28;20435;-65
2022/04/11 12:33:36;;;;;;;1.20;1.10;;;14.70;1.00;;;;;;5100651;28;20474;-63
2022/04/11 12:36:13;;;;;;;2.10;1.30;;;14.70;1.00;;;;;;5107133;28;20971;-62
2022/04/11 12:38:50;;;;;;;2.03;1.30;;;14.70;1.00;;;;;;5107905;28;20504;-63
2022/04/11 12:41:35;;;;;;;2.53;1.30;;;14.50;1.00;;;;;;5103169;28;20911;-64
2022/04/11 12:44:16;;;;;;;2.37;1.40;;;14.60;1.00;;;;;;5103063;28;20418;-63
2022/04/11 12:46:47;;;;;;;2.60;1.67;;;14.60;1.00;;;;;;5096416;28;20472;-64
2022/04/11 12:49:18;;;;;;;1.33;1.20;;;14.80;1.00;;;;;;5101020;28;20523;-64
2022/04/11 12:52:02;;;;;;;2.07;1.00;;;14.80;1.00;;;;;;5095167;28;20440;-62
2022/04/11 12:54:44;;;;;;;2.40;1.17;;;14.30;1.00;;;;;;5096148;28;20436;-63
2022/04/11 12:57:31;;;;;;;1.87;1.67;;;14.10;1.00;;;;;;5108437;28;20455;-62
2022/04/11 13:00:15;;;;;;;1.67;1.40;;;14.10;1.00;;;;;;5091589;28;20428;-63
2022/04/11 13:02:41;;;;;;;4.33;1.93;;;14.50;1.00;;;;;;5096035;28;20956;-63
2022/04/11 13:05:13;;;;;;;5.87;1.50;;;14.80;1.00;;;;;;5092118;28;20440;-62
2022/04/11 13:07:40;;;;;;;1.83;1.10;;;14.80;1.00;;;;;;5097100;28;20573;-62
2022/04/11 13:10:06;;;;;;;1.53;1.27;;;14.40;1.00;;;;;;5106468;28;20448;-62
2022/04/11 13:12:32;;;;;;;1.20;1.10;;;;;;;;;;5102722;28;20451;-63
2022/04/11 13:14:59;;;;;;;2.63;1.03;;;;;;;;;;5105531;28;20458;-62
2022/04/11 13:20:10;;;;;;;2.83;1.10;;;14.50;1.00;;;;;;5104491;28;20970;-62
2022/04/11 13:22:36;;;;;;;2.50;1.70;;;14.30;1.00;;;;;;5104721;28;20424;-62